sensor_id;sensor_type;location;lat;lon;timestamp;pressure;altitude;pressure_sealevel;temperature;humidity
68525;BME280;55524;51.380;13.372;2023-03-14T00:00:17;98437.94;;;10.74;100.00
68525;BME280;55524;51.380;13.372;2023-03-14T00:02:43;98432.34;;;10.66;100.00
68525;BME280;55524;51.380;13.372;2023-03-14T00:05:10;98429.16;;;10.61;100.00
68525;BME280;55524;51.380;13.372;2023-03-14T00:07:38;98423.16;;;10.58;100.00
68525;BME280;55524;51.380;13.372;2023-03-14T00:10:10;98411.75;;;10.58;100.00
68525;BME280;55524;51.380;13.372;2023-03-14T00:12:36;98408.69;;;10.51;100.00
68525;BME280;55524;51.380;13.372;2023-03-14T00:15:03;98398.94;;;10.65;100.00
68525;BME280;55524;51.380;13.372;2023-03-14T00:17:30;98392.47;;;10.69;100.00
68525;BME280;55524;51.380;13.372;2023-03-14T00:19:57;98393.13;;;10.72;100.00
68525;BME280;55524;51.380;13.372;2023-03-14T00:22:28;98405.59;;;10.70;100.00
68525;BME280;55524;51.380;13.372;2023-03-14T00:24:54;98404.94;;;10.79;100.00
68525;BME280;55524;51.380;13.372;2023-03-14T00:27:20;98395.75;;;10.72;100.00
68525;BME280;55524;51.380;13.372;2023-03-14T00:29:46;98391.63;;;10.81;100.00
68525;BME280;55524;51.380;13.372;2023-03-14T00:32:13;98393.25;;;10.71;100.00
68525;BME280;55524;51.380;13.372;2023-03-14T00:34:39;98402.22;;;10.68;100.00
68525;BME280;55524;51.380;13.372;2023-03-14T00:37:06;98403.94;;;10.69;100.00
68525;BME280;55524;51.380;13.372;2023-03-14T00:39:32;98401.50;;;10.66;100.00
68525;BME280;55524;51.380;13.372;2023-03-14T00:41:58;98389.53;;;10.61;100.00
68525;BME280;55524;51.380;13.372;2023-03-14T00:44:25;98391.13;;;10.63;100.00
68525;BME280;55524;51.380;13.372;2023-03-14T00:46:51;98378.13;;;10.60;100.00
68525;BME280;55524;51.380;13.372;2023-03-14T00:49:17;98369.59;;;10.56;100.00
68525;BME280;55524;51.380;13.372;2023-03-14T00:51:43;98381.31;;;10.52;100.00
68525;BME280;55524;51.380;13.372;2023-03-14T00:54:10;98370.47;;;10.44;100.00
68525;BME280;55524;51.380;13.372;2023-03-14T00:56:36;98380.63;;;10.38;100.00
68525;BME280;55524;51.380;13.372;2023-03-14T00:59:02;98388.63;;;10.36;100.00
68525;BME280;55524;51.380;13.372;2023-03-14T01:01:28;98399.31;;;10.34;100.00
68525;BME280;55524;51.380;13.372;2023-03-14T01:03:55;98398.16;;;10.39;100.00
68525;BME280;55524;51.380;13.372;2023-03-14T01:06:24;98409.25;;;10.31;100.00
68525;BME280;55524;51.380;13.372;2023-03-14T01:08:52;98409.84;;;10.22;100.00
68525;BME280;55524;51.380;13.372;2023-03-14T01:11:24;98403.19;;;10.16;100.00
68525;BME280;55524;51.380;13.372;2023-03-14T01:13:51;98401.81;;;10.23;100.00
68525;BME280;55524;51.380;13.372;2023-03-14T01:16:19;98399.81;;;10.14;100.00
68525;BME280;55524;51.380;13.372;2023-03-14T01:18:47;98406.47;;;10.07;100.00
68525;BME280;55524;51.380;13.372;2023-03-14T01:23:48;98394.22;;;10.06;100.00
68525;BME280;55524;51.380;13.372;2023-03-14T01:26:17;98396.00;;;10.05;100.00
68525;BME280;55524;51.380;13.372;2023-03-14T01:28:48;98406.97;;;9.99;100.00
68525;BME280;55524;51.380;13.372;2023-03-14T01:31:14;98413.75;;;10.03;100.00
68525;BME280;55524;51.380;13.372;2023-03-14T01:33:42;98417.84;;;9.95;100.00
68525;BME280;55524;51.380;13.372;2023-03-14T01:36:09;98414.38;;;9.94;100.00
68525;BME280;55524;51.380;13.372;2023-03-14T01:38:37;98415.00;;;9.98;100.00
68525;BME280;55524;51.380;13.372;2023-03-14T01:41:05;98410.66;;;9.97;100.00
68525;BME280;55524;51.380;13.372;2023-03-14T01:43:32;98414.56;;;9.91;100.00
68525;BME280;55524;51.380;13.372;2023-03-14T01:49:04;98414.00;;;9.73;100.00
68525;BME280;55524;51.380;13.372;2023-03-14T01:54:07;98413.69;;;9.78;100.00
68525;BME280;55524;51.380;13.372;2023-03-14T01:56:35;98401.47;;;9.90;100.00
68525;BME280;55524;51.380;13.372;2023-03-14T01:59:05;98410.13;;;9.92;100.00
68525;BME280;55524;51.380;13.372;2023-03-14T02:01:32;98405.81;;;10.03;100.00
68525;BME280;55524;51.380;13.372;2023-03-14T02:04:01;98399.91;;;10.13;100.00
68525;BME280;55524;51.380;13.372;2023-03-14T02:06:35;98386.72;;;10.13;100.00
68525;BME280;55524;51.380;13.372;2023-03-14T02:09:04;98390.81;;;10.17;100.00
68525;BME280;55524;51.380;13.372;2023-03-14T02:11:31;98400.22;;;10.08;100.00
68525;BME280;55524;51.380;13.372;2023-03-14T02:13:58;98414.47;;;10.05;100.00
68525;BME280;55524;51.380;13.372;2023-03-14T02:16:25;98406.03;;;10.00;100.00
68525;BME280;55524;51.380;13.372;2023-03-14T02:18:52;98403.81;;;10.07;100.00
68525;BME280;55524;51.380;13.372;2023-03-14T02:24:34;98401.38;;;10.04;100.00
68525;BME280;55524;51.380;13.372;2023-03-14T02:27:04;98390.38;;;9.97;100.00
68525;BME280;55524;51.380;13.372;2023-03-14T02:29:33;98383.88;;;9.90;100.00
68525;BME280;55524;51.380;13.372;2023-03-14T02:32:01;98390.59;;;9.81;100.00
68525;BME280;55524;51.380;13.372;2023-03-14T02:34:28;98393.66;;;9.88;100.00
68525;BME280;55524;51.380;13.372;2023-03-14T02:36:55;98393.84;;;9.72;100.00
68525;BME280;55524;51.380;13.372;2023-03-14T02:39:43;98402.72;;;9.71;100.00
68525;BME280;55524;51.380;13.372;2023-03-14T02:42:11;98398.16;;;9.60;100.00
68525;BME280;55524;51.380;13.372;2023-03-14T02:44:52;98400.72;;;9.75;100.00
68525;BME280;55524;51.380;13.372;2023-03-14T02:47:20;98398.63;;;9.80;100.00
68525;BME280;55524;51.380;13.372;2023-03-14T02:49:48;98403.13;;;9.78;100.00
68525;BME280;55524;51.380;13.372;2023-03-14T02:52:14;98404.53;;;9.83;100.00
68525;BME280;55524;51.380;13.372;2023-03-14T02:54:41;98398.50;;;9.81;100.00
68525;BME280;55524;51.380;13.372;2023-03-14T02:57:07;98395.34;;;9.76;100.00
68525;BME280;55524;51.380;13.372;2023-03-14T02:59:33;98388.72;;;9.83;100.00
68525;BME280;55524;51.380;13.372;2023-03-14T03:02:00;98386.91;;;9.84;100.00
68525;BME280;55524;51.380;13.372;2023-03-14T03:04:26;98386.81;;;9.98;100.00
68525;BME280;55524;51.380;13.372;2023-03-14T03:06:52;98374.34;;;9.88;100.00
68525;BME280;55524;51.380;13.372;2023-03-14T03:09:19;98368.31;;;9.85;100.00
68525;BME280;55524;51.380;13.372;2023-03-14T03:11:45;98364.31;;;9.93;100.00
68525;BME280;55524;51.380;13.372;2023-03-14T03:14:11;98376.78;;;9.91;100.00
68525;BME280;55524;51.380;13.372;2023-03-14T03:16:37;98371.84;;;9.86;100.00
68525;BME280;55524;51.380;13.372;2023-03-14T03:19:04;98368.97;;;9.89;100.00
68525;BME280;55524;51.380;13.372;2023-03-14T03:21:30;98357.88;;;10.09;100.00
68525;BME280;55524;51.380;13.372;2023-03-14T03:23:56;98361.38;;;10.10;100.00
68525;BME280;55524;51.380;13.372;2023-03-14T03:26:22;98357.78;;;10.24;100.00
68525;BME280;55524;51.380;13.372;2023-03-14T03:28:51;98356.56;;;10.29;100.00
68525;BME280;55524;51.380;13.372;2023-03-14T03:31:17;98358.13;;;10.32;100.00
68525;BME280;55524;51.380;13.372;2023-03-14T03:33:44;98360.34;;;10.25;100.00
68525;BME280;55524;51.380;13.372;2023-03-14T03:36:10;98360.34;;;10.25;100.00
68525;BME280;55524;51.380;13.372;2023-03-14T03:38:37;98382.69;;;10.20;100.00
68525;BME280;55524;51.380;13.372;2023-03-14T03:41:04;98379.75;;;10.12;100.00
68525;BME280;55524;51.380;13.372;2023-03-14T03:43:31;98384.38;;;10.08;100.00
68525;BME280;55524;51.380;13.372;2023-03-14T03:45:58;98376.34;;;10.09;100.00
68525;BME280;55524;51.380;13.372;2023-03-14T03:48:24;98374.59;;;10.10;100.00
68525;BME280;55524;51.380;13.372;2023-03-14T03:50:50;98380.78;;;10.09;100.00
68525;BME280;55524;51.380;13.372;2023-03-14T03:53:17;98374.16;;;10.03;100.00
68525;BME280;55524;51.380;13.372;2023-03-14T03:55:43;98376.03;;;10.01;100.00
68525;BME280;55524;51.380;13.372;2023-03-14T03:58:09;98382.72;;;9.94;100.00
68525;BME280;55524;51.380;13.372;2023-03-14T04:00:35;98372.78;;;9.98;100.00
68525;BME280;55524;51.380;13.372;2023-03-14T04:03:02;98357.81;;;9.98;100.00
68525;BME280;55524;51.380;13.372;2023-03-14T04:05:28;98355.03;;;10.00;100.00
68525;BME280;55524;51.380;13.372;2023-03-14T04:07:54;98347.44;;;10.08;100.00
68525;BME280;55524;51.380;13.372;2023-03-14T04:10:21;98349.56;;;10.03;100.00
68525;BME280;55524;51.380;13.372;2023-03-14T04:12:47;98341.84;;;10.00;100.00
68525;BME280;55524;51.380;13.372;2023-03-14T04:15:13;98341.22;;;9.96;100.00
68525;BME280;55524;51.380;13.372;2023-03-14T04:17:39;98339.63;;;9.94;100.00
68525;BME280;55524;51.380;13.372;2023-03-14T04:20:08;98330.88;;;9.93;100.00
68525;BME280;55524;51.380;13.372;2023-03-14T04:22:38;98329.31;;;9.91;100.00
68525;BME280;55524;51.380;13.372;2023-03-14T04:25:05;98332.16;;;9.88;100.00
68525;BME280;55524;51.380;13.372;2023-03-14T04:27:31;98338.38;;;9.87;100.00
68525;BME280;55524;51.380;13.372;2023-03-14T04:29:58;98332.47;;;9.83;100.00
68525;BME280;55524;51.380;13.372;2023-03-14T04:32:24;98329.91;;;9.81;100.00
68525;BME280;55524;51.380;13.372;2023-03-14T04:34:50;98333.94;;;9.87;100.00
68525;BME280;55524;51.380;13.372;2023-03-14T04:37:16;98337.75;;;9.83;100.00
68525;BME280;55524;51.380;13.372;2023-03-14T04:39:43;98327.78;;;9.74;100.00
68525;BME280;55524;51.380;13.372;2023-03-14T04:42:09;98328.56;;;9.76;100.00
68525;BME280;55524;51.380;13.372;2023-03-14T04:44:35;98331.00;;;9.79;100.00
68525;BME280;55524;51.380;13.372;2023-03-14T04:47:01;98319.69;;;9.77;100.00
68525;BME280;55524;51.380;13.372;2023-03-14T04:49:28;98325.91;;;9.76;100.00
68525;BME280;55524;51.380;13.372;2023-03-14T04:51:54;98317.25;;;9.74;100.00
68525;BME280;55524;51.380;13.372;2023-03-14T04:54:20;98317.25;;;9.74;100.00
68525;BME280;55524;51.380;13.372;2023-03-14T04:56:46;98311.38;;;9.83;100.00
68525;BME280;55524;51.380;13.372;2023-03-14T04:59:13;98301.13;;;9.78;100.00
68525;BME280;55524;51.380;13.372;2023-03-14T05:01:39;98296.50;;;9.82;100.00
68525;BME280;55524;51.380;13.372;2023-03-14T05:04:07;98304.28;;;9.83;100.00
68525;BME280;55524;51.380;13.372;2023-03-14T05:06:33;98296.59;;;9.80;100.00
68525;BME280;55524;51.380;13.372;2023-03-14T05:08:59;98305.03;;;9.73;100.00
68525;BME280;55524;51.380;13.372;2023-03-14T05:11:26;98307.56;;;9.74;100.00
68525;BME280;55524;51.380;13.372;2023-03-14T05:13:52;98301.53;;;9.72;100.00
68525;BME280;55524;51.380;13.372;2023-03-14T05:16:18;98316.63;;;9.70;100.00
68525;BME280;55524;51.380;13.372;2023-03-14T05:18:44;98315.56;;;9.73;100.00
68525;BME280;55524;51.380;13.372;2023-03-14T05:21:11;98316.22;;;9.76;100.00
68525;BME280;55524;51.380;13.372;2023-03-14T05:23:37;98307.44;;;9.76;100.00
68525;BME280;55524;51.380;13.372;2023-03-14T05:26:03;98304.41;;;9.82;100.00
68525;BME280;55524;51.380;13.372;2023-03-14T05:28:30;98303.97;;;9.75;100.00
68525;BME280;55524;51.380;13.372;2023-03-14T05:30:56;98294.47;;;9.73;100.00
68525;BME280;55524;51.380;13.372;2023-03-14T05:33:22;98289.19;;;9.73;100.00
68525;BME280;55524;51.380;13.372;2023-03-14T05:35:48;98290.25;;;9.70;100.00
68525;BME280;55524;51.380;13.372;2023-03-14T05:38:15;98281.81;;;9.65;100.00
68525;BME280;55524;51.380;13.372;2023-03-14T05:40:41;98279.47;;;9.60;100.00
68525;BME280;55524;51.380;13.372;2023-03-14T05:43:07;98280.31;;;9.61;100.00
68525;BME280;55524;51.380;13.372;2023-03-14T05:45:35;98272.34;;;9.63;100.00
68525;BME280;55524;51.380;13.372;2023-03-14T05:48:01;98288.34;;;9.59;100.00
68525;BME280;55524;51.380;13.372;2023-03-14T05:50:27;98280.25;;;9.63;100.00
68525;BME280;55524;51.380;13.372;2023-03-14T05:52:53;98272.09;;;9.66;100.00
68525;BME280;55524;51.380;13.372;2023-03-14T05:55:20;98275.25;;;9.58;100.00
68525;BME280;55524;51.380;13.372;2023-03-14T05:57:46;98296.47;;;9.56;100.00
68525;BME280;55524;51.380;13.372;2023-03-14T06:00:13;98297.09;;;9.60;100.00
68525;BME280;55524;51.380;13.372;2023-03-14T06:02:39;98289.63;;;9.67;100.00
68525;BME280;55524;51.380;13.372;2023-03-14T06:05:06;98305.22;;;9.70;100.00
68525;BME280;55524;51.380;13.372;2023-03-14T06:07:32;98279.78;;;9.81;100.00
68525;BME280;55524;51.380;13.372;2023-03-14T06:09:58;98288.13;;;9.88;99.71
68525;BME280;55524;51.380;13.372;2023-03-14T06:12:25;98296.88;;;9.89;99.50
68525;BME280;55524;51.380;13.372;2023-03-14T06:14:51;98289.41;;;9.95;98.16
68525;BME280;55524;51.380;13.372;2023-03-14T06:17:17;98297.31;;;9.95;98.29
68525;BME280;55524;51.380;13.372;2023-03-14T06:19:44;98285.69;;;9.85;99.03
68525;BME280;55524;51.380;13.372;2023-03-14T06:22:10;98291.09;;;9.83;99.69
68525;BME280;55524;51.380;13.372;2023-03-14T06:24:36;98288.13;;;9.88;99.29
68525;BME280;55524;51.380;13.372;2023-03-14T06:27:03;98294.06;;;9.79;99.31
68525;BME280;55524;51.380;13.372;2023-03-14T06:29:29;98305.97;;;9.84;98.87
68525;BME280;55524;51.380;13.372;2023-03-14T06:31:56;98304.50;;;9.80;98.98
68525;BME280;55524;51.380;13.372;2023-03-14T06:34:22;98308.81;;;9.81;98.85
68525;BME280;55524;51.380;13.372;2023-03-14T06:36:49;98312.00;;;9.87;99.27
68525;BME280;55524;51.380;13.372;2023-03-14T06:39:15;98314.09;;;9.94;98.40
68525;BME280;55524;51.380;13.372;2023-03-14T06:41:41;98313.66;;;10.00;97.53
68525;BME280;55524;51.380;13.372;2023-03-14T06:44:07;98316.81;;;10.05;97.39
68525;BME280;55524;51.380;13.372;2023-03-14T06:46:34;98316.28;;;10.13;96.77
68525;BME280;55524;51.380;13.372;2023-03-14T06:49:00;98318.00;;;10.14;96.29
68525;BME280;55524;51.380;13.372;2023-03-14T06:51:26;98322.94;;;10.19;96.16
68525;BME280;55524;51.380;13.372;2023-03-14T06:53:52;98323.16;;;10.16;97.57
68525;BME280;55524;51.380;13.372;2023-03-14T06:56:19;98329.78;;;10.21;96.02
68525;BME280;55524;51.380;13.372;2023-03-14T06:58:45;98310.47;;;10.21;96.93
68525;BME280;55524;51.380;13.372;2023-03-14T07:01:22;98307.97;;;10.32;96.41
68525;BME280;55524;51.380;13.372;2023-03-14T07:03:50;98306.06;;;10.34;95.89
68525;BME280;55524;51.380;13.372;2023-03-14T07:06:16;98310.59;;;10.32;96.13
68525;BME280;55524;51.380;13.372;2023-03-14T07:08:43;98310.38;;;10.35;95.79
68525;BME280;55524;51.380;13.372;2023-03-14T07:11:09;98315.78;;;10.33;96.80
68525;BME280;55524;51.380;13.372;2023-03-14T07:13:40;98311.22;;;10.36;96.17
68525;BME280;55524;51.380;13.372;2023-03-14T07:16:07;98300.63;;;10.48;94.74
68525;BME280;55524;51.380;13.372;2023-03-14T07:18:34;98309.81;;;10.55;93.84
68525;BME280;55524;51.380;13.372;2023-03-14T07:21:00;98318.22;;;10.61;93.30
68525;BME280;55524;51.380;13.372;2023-03-14T07:23:26;98321.63;;;10.63;93.68
68525;BME280;55524;51.380;13.372;2023-03-14T07:25:52;98322.34;;;10.65;93.34
68525;BME280;55524;51.380;13.372;2023-03-14T07:28:19;98326.91;;;10.63;94.26
68525;BME280;55524;51.380;13.372;2023-03-14T07:30:48;98332.59;;;10.56;94.57
68525;BME280;55524;51.380;13.372;2023-03-14T07:33:15;98322.66;;;10.60;95.50
68525;BME280;55524;51.380;13.372;2023-03-14T07:35:41;98319.47;;;10.68;93.36
68525;BME280;55524;51.380;13.372;2023-03-14T07:38:08;98321.91;;;10.71;92.32
68525;BME280;55524;51.380;13.372;2023-03-14T07:40:34;98316.78;;;10.80;92.21
68525;BME280;55524;51.380;13.372;2023-03-14T07:43:00;98309.47;;;10.84;91.63
68525;BME280;55524;51.380;13.372;2023-03-14T07:45:27;98308.56;;;10.85;92.15
68525;BME280;55524;51.380;13.372;2023-03-14T07:47:53;98304.38;;;10.94;91.42
68525;BME280;55524;51.380;13.372;2023-03-14T07:50:23;98305.22;;;10.94;92.07
68525;BME280;55524;51.380;13.372;2023-03-14T07:52:50;98297.09;;;10.97;91.06
68525;BME280;55524;51.380;13.372;2023-03-14T07:55:17;98301.19;;;11.01;92.55
68525;BME280;55524;51.380;13.372;2023-03-14T07:57:43;98300.72;;;11.07;91.72
68525;BME280;55524;51.380;13.372;2023-03-14T08:00:10;98298.34;;;11.16;90.65
68525;BME280;55524;51.380;13.372;2023-03-14T08:02:37;98303.19;;;11.22;90.41
68525;BME280;55524;51.380;13.372;2023-03-14T08:05:04;98305.81;;;11.22;89.94
68525;BME280;55524;51.380;13.372;2023-03-14T08:07:30;98308.25;;;11.25;90.30
68525;BME280;55524;51.380;13.372;2023-03-14T08:09:56;98297.69;;;11.36;89.65
68525;BME280;55524;51.380;13.372;2023-03-14T08:12:23;98302.66;;;11.41;89.63
68525;BME280;55524;51.380;13.372;2023-03-14T08:14:49;98304.19;;;11.43;88.69
68525;BME280;55524;51.380;13.372;2023-03-14T08:17:15;98292.44;;;11.47;89.23
68525;BME280;55524;51.380;13.372;2023-03-14T08:19:42;98285.09;;;11.51;88.08
68525;BME280;55524;51.380;13.372;2023-03-14T08:22:08;98285.09;;;11.51;88.74
68525;BME280;55524;51.380;13.372;2023-03-14T08:24:35;98276.34;;;11.50;87.74
68525;BME280;55524;51.380;13.372;2023-03-14T08:27:01;98278.28;;;11.48;88.13
68525;BME280;55524;51.380;13.372;2023-03-14T08:29:27;98288.25;;;11.45;88.63
68525;BME280;55524;51.380;13.372;2023-03-14T08:31:54;98290.31;;;11.52;87.90
68525;BME280;55524;51.380;13.372;2023-03-14T08:34:20;98288.38;;;11.54;86.35
68525;BME280;55524;51.380;13.372;2023-03-14T08:36:47;98281.53;;;11.63;86.39
68525;BME280;55524;51.380;13.372;2023-03-14T08:39:13;98268.97;;;11.89;85.40
68525;BME280;55524;51.380;13.372;2023-03-14T08:41:39;98265.13;;;12.04;85.51
68525;BME280;55524;51.380;13.372;2023-03-14T08:44:10;98264.38;;;12.02;84.53
68525;BME280;55524;51.380;13.372;2023-03-14T08:46:39;98269.69;;;12.14;84.57
68525;BME280;55524;51.380;13.372;2023-03-14T08:49:05;98263.56;;;12.79;82.37
68525;BME280;55524;51.380;13.372;2023-03-14T08:51:32;98247.34;;;13.25;78.97
68525;BME280;55524;51.380;13.372;2023-03-14T08:53:58;98240.47;;;13.65;77.80
68525;BME280;55524;51.380;13.372;2023-03-14T08:56:24;98247.16;;;13.59;78.67
68525;BME280;55524;51.380;13.372;2023-03-14T08:58:51;98253.13;;;13.51;77.89
68525;BME280;55524;51.380;13.372;2023-03-14T09:01:18;98239.50;;;13.87;77.16
68525;BME280;55524;51.380;13.372;2023-03-14T09:03:45;98234.28;;;13.85;75.89
68525;BME280;55524;51.380;13.372;2023-03-14T09:06:13;98247.81;;;13.51;78.01
68525;BME280;55524;51.380;13.372;2023-03-14T09:08:39;98232.56;;;13.23;76.38
68525;BME280;55524;51.380;13.372;2023-03-14T09:11:08;98264.09;;;12.94;78.60
68525;BME280;55524;51.380;13.372;2023-03-14T09:13:34;98265.47;;;12.77;78.70
68525;BME280;55524;51.380;13.372;2023-03-14T09:16:01;98256.47;;;12.68;77.55
68525;BME280;55524;51.380;13.372;2023-03-14T09:18:28;98264.22;;;12.60;78.04
68525;BME280;55524;51.380;13.372;2023-03-14T09:20:55;98269.78;;;12.46;78.24
68525;BME280;55524;51.380;13.372;2023-03-14T09:23:22;98275.06;;;12.57;78.73
68525;BME280;55524;51.380;13.372;2023-03-14T09:25:48;98251.69;;;12.51;76.64
68525;BME280;55524;51.380;13.372;2023-03-14T09:28:14;98274.69;;;12.50;78.33
68525;BME280;55524;51.380;13.372;2023-03-14T09:30:40;98264.00;;;12.52;78.70
68525;BME280;55524;51.380;13.372;2023-03-14T09:33:07;98266.03;;;12.60;78.09
68525;BME280;55524;51.380;13.372;2023-03-14T09:35:34;98292.53;;;12.60;79.41
68525;BME280;55524;51.380;13.372;2023-03-14T09:38:00;98277.09;;;12.53;78.20
68525;BME280;55524;51.380;13.372;2023-03-14T09:40:33;98273.25;;;12.58;77.06
68525;BME280;55524;51.380;13.372;2023-03-14T09:43:00;98274.00;;;12.48;77.94
68525;BME280;55524;51.380;13.372;2023-03-14T09:45:31;98275.28;;;12.54;76.41
68525;BME280;55524;51.380;13.372;2023-03-14T09:47:58;98270.75;;;12.45;76.78
68525;BME280;55524;51.380;13.372;2023-03-14T09:50:30;98279.88;;;12.52;77.55
68525;BME280;55524;51.380;13.372;2023-03-14T09:53:03;98276.63;;;12.60;76.88
68525;BME280;55524;51.380;13.372;2023-03-14T09:55:32;98287.69;;;12.65;78.58
68525;BME280;55524;51.380;13.372;2023-03-14T09:58:03;98278.53;;;12.58;76.61
68525;BME280;55524;51.380;13.372;2023-03-14T10:00:35;98268.41;;;12.63;76.71
68525;BME280;55524;51.380;13.372;2023-03-14T10:03:23;98270.72;;;12.56;77.21
68525;BME280;55524;51.380;13.372;2023-03-14T10:05:50;98257.69;;;12.64;75.03
68525;BME280;55524;51.380;13.372;2023-03-14T10:08:17;98258.19;;;12.47;75.71
68525;BME280;55524;51.380;13.372;2023-03-14T10:10:43;98281.19;;;12.58;76.78
68525;BME280;55524;51.380;13.372;2023-03-14T10:15:50;98263.25;;;12.50;75.44
68525;BME280;55524;51.380;13.372;2023-03-14T10:18:17;98271.09;;;12.51;76.60
68525;BME280;55524;51.380;13.372;2023-03-14T10:20:46;98272.78;;;12.52;76.17
68525;BME280;55524;51.380;13.372;2023-03-14T10:25:58;98272.53;;;12.55;76.10
68525;BME280;55524;51.380;13.372;2023-03-14T10:28:32;98266.03;;;12.60;74.88
68525;BME280;55524;51.380;13.372;2023-03-14T10:30:59;98262.88;;;12.66;75.42
68525;BME280;55524;51.380;13.372;2023-03-14T10:33:28;98253.69;;;12.70;74.82
68525;BME280;55524;51.380;13.372;2023-03-14T10:36:05;98254.81;;;12.67;75.19
68525;BME280;55524;51.380;13.372;2023-03-14T10:38:40;98250.31;;;12.79;74.99
68525;BME280;55524;51.380;13.372;2023-03-14T10:41:26;98238.97;;;12.77;73.10
68525;BME280;55524;51.380;13.372;2023-03-14T10:43:58;98252.91;;;12.90;74.70
68525;BME280;55524;51.380;13.372;2023-03-14T10:46:26;98258.47;;;12.87;73.66
68525;BME280;55524;51.380;13.372;2023-03-14T10:48:57;98258.47;;;12.87;74.59
68525;BME280;55524;51.380;13.372;2023-03-14T10:51:28;98254.59;;;12.91;74.30
68525;BME280;55524;51.380;13.372;2023-03-14T10:54:03;98247.78;;;12.77;72.96
68525;BME280;55524;51.380;13.372;2023-03-14T10:56:37;98247.28;;;12.84;73.53
68525;BME280;55524;51.380;13.372;2023-03-14T10:59:06;98266.16;;;12.90;74.86
68525;BME280;55524;51.380;13.372;2023-03-14T11:01:51;98249.31;;;12.91;74.84
68525;BME280;55524;51.380;13.372;2023-03-14T11:10:01;98239.41;;;12.93;73.22
68525;BME280;55524;51.380;13.372;2023-03-14T11:15:47;98247.72;;;12.89;74.30
68525;BME280;55524;51.380;13.372;2023-03-14T11:17:57;98258.00;;;12.82;75.38
68525;BME280;55524;51.380;13.372;2023-03-14T11:32:19;98232.41;;;13.24;72.67
68525;BME280;55524;51.380;13.372;2023-03-14T11:34:52;98235.44;;;13.20;72.64
68525;BME280;55524;51.380;13.372;2023-03-14T11:40:18;98228.25;;;13.11;72.18
68525;BME280;55524;51.380;13.372;2023-03-14T11:42:58;98217.78;;;12.98;72.08
68525;BME280;55524;51.380;13.372;2023-03-14T11:45:35;98230.00;;;12.89;73.69
68525;BME280;55524;51.380;13.372;2023-03-14T11:48:28;98242.03;;;12.93;74.49
68525;BME280;55524;51.380;13.372;2023-03-14T11:50:57;98229.03;;;12.90;73.16
68525;BME280;55524;51.380;13.372;2023-03-14T11:53:50;98235.22;;;12.91;74.01
68525;BME280;55524;51.380;13.372;2023-03-14T11:56:46;98234.47;;;12.89;74.00
68525;BME280;55524;51.380;13.372;2023-03-14T11:59:28;98221.56;;;12.95;72.89
68525;BME280;55524;51.380;13.372;2023-03-14T12:02:01;98219.22;;;13.02;72.63
68525;BME280;55524;51.380;13.372;2023-03-14T12:07:23;98206.34;;;13.29;71.73
68525;BME280;55524;51.380;13.372;2023-03-14T12:09:55;98216.47;;;13.45;71.16
68525;BME280;55524;51.380;13.372;2023-03-14T12:12:26;98222.25;;;13.50;72.25
68525;BME280;55524;51.380;13.372;2023-03-14T12:15:04;98216.66;;;13.53;72.28
68525;BME280;55524;51.380;13.372;2023-03-14T12:17:38;98214.75;;;13.35;73.39
68525;BME280;55524;51.380;13.372;2023-03-14T12:20:26;98212.38;;;13.32;74.10
68525;BME280;55524;51.380;13.372;2023-03-14T12:23:01;98216.56;;;13.55;75.04
68525;BME280;55524;51.380;13.372;2023-03-14T12:25:31;98216.47;;;13.66;74.00
68525;BME280;55524;51.380;13.372;2023-03-14T12:28:31;98210.31;;;13.66;74.34
68525;BME280;55524;51.380;13.372;2023-03-14T12:30:50;98211.72;;;13.70;74.71
68525;BME280;55524;51.380;13.372;2023-03-14T12:33:20;98213.25;;;13.63;73.19
68525;BME280;55524;51.380;13.372;2023-03-14T12:43:40;98228.69;;;13.27;76.40
68525;BME280;55524;51.380;13.372;2023-03-14T12:46:20;98232.28;;;13.26;77.40
68525;BME280;55524;51.380;13.372;2023-03-14T12:49:05;98228.13;;;13.33;78.06
68525;BME280;55524;51.380;13.372;2023-03-14T12:51:38;98260.56;;;13.04;81.72
68525;BME280;55524;51.380;13.372;2023-03-14T13:07:36;98223.06;;;12.45;86.67
68525;BME280;55524;51.380;13.372;2023-03-14T13:10:45;98222.06;;;12.89;83.91
68525;BME280;55524;51.380;13.372;2023-03-14T13:13:25;98196.28;;;13.54;79.70
68525;BME280;55524;51.380;13.372;2023-03-14T13:15:57;98185.69;;;13.33;78.76
68525;BME280;55524;51.380;13.372;2023-03-14T13:18:43;98202.56;;;13.53;79.53
68525;BME280;55524;51.380;13.372;2023-03-14T13:21:21;98190.13;;;13.53;78.47
68525;BME280;55524;51.380;13.372;2023-03-14T13:24:06;98185.13;;;13.91;77.36
68525;BME280;55524;51.380;13.372;2023-03-14T13:26:40;98152.28;;;13.82;74.77
68525;BME280;55524;51.380;13.372;2023-03-14T13:31:49;98130.13;;;14.12;72.61
68525;BME280;55524;51.380;13.372;2023-03-14T13:34:16;98150.78;;;14.09;73.24
68525;BME280;55524;51.380;13.372;2023-03-14T13:36:43;98152.16;;;14.63;73.30
68525;BME280;55524;51.380;13.372;2023-03-14T13:39:17;98123.75;;;14.63;70.79
68525;BME280;55524;51.380;13.372;2023-03-14T13:41:45;98084.59;;;15.22;66.83
68525;BME280;55524;51.380;13.372;2023-03-14T13:44:26;98080.28;;;15.11;65.54
68525;BME280;55524;51.380;13.372;2023-03-14T13:46:58;98091.09;;;15.10;65.49
68525;BME280;55524;51.380;13.372;2023-03-14T13:49:26;98084.44;;;15.33;63.97
68525;BME280;55524;51.380;13.372;2023-03-14T13:51:55;98079.81;;;15.25;65.08
68525;BME280;55524;51.380;13.372;2023-03-14T13:54:22;98078.72;;;15.65;64.70
68525;BME280;55524;51.380;13.372;2023-03-14T13:56:49;98063.38;;;15.95;62.56
68525;BME280;55524;51.380;13.372;2023-03-14T13:59:30;98060.94;;;15.84;62.14
68525;BME280;55524;51.380;13.372;2023-03-14T14:01:59;98077.13;;;16.00;63.83